createdAt,value
2023-02-22T00:00:00.132Z, 0
2023-02-22T00:02:00.138Z, 0
2023-02-22T00:04:00.107Z, 0
2023-02-22T00:06:00.115Z, 0
2023-02-22T00:08:00.132Z, 0
2023-02-22T00:10:00.158Z, 0
2023-02-22T00:12:00.123Z, 0
2023-02-22T00:14:00.074Z, 0
2023-02-22T00:16:00.167Z, 0
2023-02-22T00:18:00.065Z, 0
2023-02-22T00:20:00.073Z, 0
2023-02-22T00:22:00.152Z, 0
2023-02-22T00:24:00.059Z, 0
2023-02-22T00:26:00.093Z, 0
2023-02-22T00:28:00.066Z, 0
2023-02-22T00:30:00.052Z, 0
2023-02-22T00:32:00.169Z, 0
2023-02-22T00:34:00.061Z, 0
2023-02-22T00:36:00.052Z, 0
2023-02-22T00:38:00.052Z, 0
2023-02-22T00:40:00.061Z, 0
2023-02-22T00:42:00.117Z, 0
2023-02-22T00:44:00.124Z, 0
2023-02-22T00:46:00.167Z, 0
2023-02-22T00:48:00.109Z, 0
2023-02-22T00:50:00.147Z, 0
2023-02-22T00:52:00.111Z, 0
2023-02-22T00:54:00.100Z, 0
2023-02-22T00:56:00.116Z, 0
2023-02-22T00:58:00.124Z, 0
2023-02-22T01:00:00.236Z, 0
2023-02-22T01:02:00.182Z, 0
2023-02-22T01:04:00.135Z, 0
2023-02-22T01:06:00.121Z, 0
2023-02-22T01:08:00.127Z, 0
2023-02-22T01:10:00.135Z, 0
2023-02-22T01:12:00.136Z, 0
2023-02-22T01:14:00.069Z, 0
2023-02-22T01:16:00.118Z, 0
2023-02-22T01:18:00.064Z, 0
2023-02-22T01:20:00.092Z, 0
2023-02-22T01:22:00.508Z, 0
2023-02-22T01:24:00.070Z, 0
2023-02-22T01:26:00.059Z, 0
2023-02-22T01:28:00.075Z, 0
2023-02-22T01:30:00.256Z, 0
2023-02-22T01:32:00.123Z, 0
2023-02-22T01:34:00.106Z, 0
2023-02-22T01:36:00.183Z, 0
2023-02-22T01:38:00.046Z, 0
2023-02-22T01:40:00.045Z, 0
2023-02-22T01:42:00.091Z, 0
2023-02-22T01:44:00.108Z, 0
2023-02-22T01:46:00.174Z, 0
2023-02-22T01:48:00.138Z, 0
2023-02-22T01:50:00.097Z, 0
2023-02-22T01:52:00.124Z, 0
2023-02-22T01:54:00.107Z, 0
2023-02-22T01:56:00.130Z, 0
2023-02-22T01:58:00.129Z, 0
2023-02-22T02:00:00.157Z, 0
2023-02-22T02:02:00.141Z, 0
2023-02-22T02:04:00.226Z, 0
2023-02-22T02:06:00.090Z, 0
2023-02-22T02:08:00.118Z, 0
2023-02-22T02:10:00.129Z, 0
2023-02-22T02:12:00.103Z, 0
2023-02-22T02:14:00.097Z, 0
2023-02-22T02:16:00.058Z, 0
2023-02-22T02:18:00.100Z, 0
2023-02-22T02:20:00.115Z, 0
2023-02-22T02:22:00.085Z, 0
2023-02-22T02:24:00.054Z, 0
2023-02-22T02:26:00.055Z, 0
2023-02-22T02:28:00.091Z, 0
2023-02-22T02:30:00.052Z, 0
2023-02-22T02:32:00.224Z, 0
2023-02-22T02:34:00.103Z, 0
2023-02-22T02:36:00.106Z, 0
2023-02-22T02:38:00.049Z, 0
2023-02-22T02:40:00.111Z, 0
2023-02-22T02:42:00.058Z, 0
2023-02-22T02:44:00.120Z, 0
2023-02-22T02:46:00.096Z, 0
2023-02-22T02:48:00.132Z, 0
2023-02-22T02:50:00.130Z, 0
2023-02-22T02:52:00.125Z, 0
2023-02-22T02:54:00.125Z, 0
2023-02-22T02:56:00.108Z, 0
2023-02-22T02:58:00.106Z, 0
2023-02-22T03:00:00.165Z, 0
2023-02-22T03:02:00.150Z, 0
2023-02-22T03:04:00.100Z, 0
2023-02-22T03:06:00.112Z, 0
2023-02-22T03:08:00.117Z, 0
2023-02-22T03:10:00.144Z, 0
2023-02-22T03:12:00.401Z, 0
2023-02-22T03:14:00.055Z, 0
2023-02-22T03:16:00.122Z, 0
2023-02-22T03:18:00.043Z, 0
2023-02-22T03:20:00.031Z, 0
2023-02-22T03:22:00.071Z, 0
2023-02-22T03:24:00.095Z, 0
2023-02-22T03:26:00.056Z, 0
2023-02-22T03:28:00.097Z, 0
2023-02-22T03:30:00.056Z, 0
2023-02-22T03:32:00.075Z, 0
2023-02-22T03:34:00.038Z, 0
2023-02-22T03:36:00.055Z, 0
2023-02-22T03:38:00.048Z, 0
2023-02-22T03:40:00.060Z, 0
2023-02-22T03:42:00.063Z, 0
2023-02-22T03:44:00.114Z, 0
2023-02-22T03:46:00.232Z, 0
2023-02-22T03:48:00.117Z, 0
2023-02-22T03:50:00.154Z, 0
2023-02-22T03:52:00.131Z, 0
2023-02-22T03:54:00.132Z, 0
2023-02-22T03:56:00.112Z, 0
2023-02-22T03:58:00.117Z, 0
2023-02-22T04:00:00.127Z, 0
2023-02-22T04:02:00.124Z, 0
2023-02-22T04:04:00.118Z, 0
2023-02-22T04:06:00.117Z, 0
2023-02-22T04:08:00.109Z, 0
2023-02-22T04:10:00.174Z, 0
2023-02-22T04:12:00.164Z, 0
2023-02-22T04:14:00.075Z, 0
2023-02-22T04:16:00.063Z, 0
2023-02-22T04:18:00.071Z, 0
2023-02-22T04:20:00.049Z, 0
2023-02-22T04:22:00.050Z, 0
2023-02-22T04:24:00.133Z, 0
2023-02-22T04:26:00.036Z, 0
2023-02-22T04:28:00.062Z, 0
2023-02-22T04:30:00.039Z, 0
2023-02-22T04:32:00.167Z, 0
2023-02-22T04:34:00.052Z, 0
2023-02-22T04:36:00.044Z, 0
2023-02-22T04:38:00.054Z, 0
2023-02-22T04:40:00.058Z, 0
2023-02-22T04:42:00.108Z, 0
2023-02-22T04:44:00.169Z, 0
2023-02-22T04:46:00.105Z, 0
2023-02-22T04:48:00.130Z, 0
2023-02-22T04:50:00.107Z, 0
2023-02-22T04:52:00.132Z, 0
2023-02-22T04:54:00.101Z, 0
2023-02-22T04:56:00.133Z, 0
2023-02-22T04:58:00.118Z, 0
2023-02-22T05:00:00.131Z, 0
2023-02-22T05:02:00.111Z, 0
2023-02-22T05:04:00.096Z, 0
2023-02-22T05:06:00.124Z, 0
2023-02-22T05:08:00.111Z, 0
2023-02-22T05:10:00.138Z, 0
2023-02-22T05:12:00.121Z, 0
2023-02-22T05:14:00.062Z, 0
2023-02-22T05:16:00.124Z, 0
2023-02-22T05:18:00.102Z, 0
2023-02-22T05:20:00.040Z, 0
2023-02-22T05:22:00.042Z, 0
2023-02-22T05:24:00.050Z, 0
2023-02-22T05:26:00.031Z, 0
2023-02-22T05:28:00.019Z, 0
2023-02-22T05:30:00.041Z, 0
2023-02-22T05:32:00.303Z, 0
2023-02-22T05:34:00.254Z, 0
2023-02-22T05:36:00.185Z, 0
2023-02-22T05:38:00.319Z, 0
2023-02-22T05:40:00.102Z, 0
2023-02-22T05:42:00.060Z, 0
2023-02-22T05:44:00.185Z, 0
2023-02-22T05:46:00.114Z, 0
2023-02-22T05:48:00.125Z, 0
2023-02-22T05:50:00.140Z, 0
2023-02-22T05:52:00.124Z, 0
2023-02-22T05:54:00.101Z, 0
2023-02-22T05:56:00.092Z, 0
2023-02-22T05:58:00.134Z, 0
2023-02-22T06:00:00.140Z, 0
2023-02-22T06:02:00.222Z, 0
2023-02-22T06:04:00.134Z, 0
2023-02-22T06:06:00.106Z, 0
2023-02-22T06:08:00.112Z, 0
2023-02-22T06:10:00.129Z, 0
2023-02-22T06:12:00.145Z, 0.01
2023-02-22T06:14:00.085Z, 0.01
2023-02-22T06:16:00.088Z, 0.01
2023-02-22T06:18:00.065Z, 0.01
2023-02-22T06:20:00.095Z, 0.01
2023-02-22T06:22:00.112Z, 0.02
2023-02-22T06:24:00.049Z, 0.02
2023-02-22T06:26:00.220Z, 0.02
2023-02-22T06:28:00.328Z, 0.03
2023-02-22T06:30:00.399Z, 0.03
2023-02-22T06:32:00.441Z, 0.04
2023-02-22T06:34:00.241Z, 0.05
2023-02-22T06:36:00.103Z, 0.06
2023-02-22T06:38:00.051Z, 0.06
2023-02-22T06:40:04.890Z, 0.07
2023-02-22T06:42:00.133Z, 0.08
2023-02-22T06:44:00.117Z, 0.09
2023-02-22T06:46:00.133Z, 0.1
2023-02-22T06:48:00.094Z, 0.12
2023-02-22T06:50:00.108Z, 0.13
2023-02-22T06:52:00.113Z, 0.14
2023-02-22T06:54:00.081Z, 0.16
2023-02-22T06:56:00.125Z, 0.17
2023-02-22T06:58:00.131Z, 0.18
2023-02-22T07:00:00.119Z, 0.2
2023-02-22T07:02:00.120Z, 0.22
2023-02-22T07:04:00.120Z, 0.24
2023-02-22T07:06:00.113Z, 0.25
2023-02-22T07:08:00.113Z, 0.27
2023-02-22T07:10:00.119Z, 0.29
2023-02-22T07:12:00.110Z, 0.31
2023-02-22T07:14:00.068Z, 0.33
2023-02-22T07:16:00.146Z, 0.36
2023-02-22T07:18:00.070Z, 0.39
2023-02-22T07:20:00.068Z, 0.39
2023-02-22T07:22:00.050Z, 0.41
2023-02-22T07:24:00.058Z, 0.45
2023-02-22T07:26:00.056Z, 0.46
2023-02-22T07:28:00.041Z, 0.48
2023-02-22T07:30:00.043Z, 0.48
2023-02-22T07:32:00.126Z, 0.48
2023-02-22T07:34:00.048Z, 0.5
2023-02-22T07:36:00.066Z, 0.53
2023-02-22T07:38:00.045Z, 0.55
2023-02-22T07:40:00.083Z, 0.57
2023-02-22T07:42:00.023Z, 0.57
2023-02-22T07:44:00.146Z, 0.59
2023-02-22T07:46:00.182Z, 0.64
2023-02-22T07:48:00.171Z, 0.66
2023-02-22T07:50:00.191Z, 0.65
2023-02-22T07:52:00.156Z, 0.65
2023-02-22T07:54:00.208Z, 0.66
2023-02-22T07:56:00.158Z, 0.67
2023-02-22T07:58:00.146Z, 0.69
2023-02-22T08:00:00.151Z, 0.68
2023-02-22T08:02:00.174Z, 0.68
2023-02-22T08:04:00.290Z, 0.67
2023-02-22T08:06:00.148Z, 0.7
2023-02-22T08:08:00.144Z, 0.73
2023-02-22T08:10:00.169Z, 0.77
2023-02-22T08:12:00.158Z, 0.78
2023-02-22T08:14:00.057Z, 0.82
2023-02-22T08:16:00.045Z, 0.9
2023-02-22T08:18:00.049Z, 0.96
2023-02-22T08:20:00.039Z, 0.96
2023-02-22T08:22:00.054Z, 0.97
2023-02-22T08:24:00.054Z, 1.02
2023-02-22T08:26:00.058Z, 0.99
2023-02-22T08:28:00.098Z, 1.04
2023-02-22T08:30:00.051Z, 1.04
2023-02-22T08:32:00.237Z, 1.05
2023-02-22T08:34:00.032Z, 1.03
2023-02-22T08:36:00.094Z, 1.01
2023-02-22T08:38:00.061Z, 1.01
2023-02-22T08:40:00.045Z, 0.99
2023-02-22T08:42:00.049Z, 1
2023-02-22T08:44:00.199Z, 1.03
2023-02-22T08:46:00.282Z, 1.01
2023-02-22T08:48:00.137Z, 1.04
2023-02-22T08:50:00.121Z, 1.06
2023-02-22T08:52:00.129Z, 1.09
2023-02-22T08:54:00.191Z, 1.12
2023-02-22T08:56:00.124Z, 1.17
2023-02-22T08:58:00.131Z, 1.14
2023-02-22T09:00:00.130Z, 1.14
2023-02-22T09:02:00.342Z, 1.22
2023-02-22T09:04:00.275Z, 1.26
2023-02-22T09:06:00.198Z, 1.25
2023-02-22T09:08:00.187Z, 1.21
2023-02-22T09:10:00.128Z, 1.26
2023-02-22T09:12:00.525Z, 1.29
2023-02-22T09:14:00.103Z, 1.25
2023-02-22T09:16:00.157Z, 1.29
2023-02-22T09:18:00.069Z, 1.32
2023-02-22T09:20:00.078Z, 1.36
2023-02-22T09:22:00.129Z, 1.4
2023-02-22T09:24:00.085Z, 1.38
2023-02-22T09:26:00.053Z, 1.38
2023-02-22T09:28:00.083Z, 1.4
2023-02-22T09:30:00.061Z, 1.51
2023-02-22T09:32:00.285Z, 1.46
2023-02-22T09:34:00.575Z, 1.55
2023-02-22T09:36:00.050Z, 1.53
2023-02-22T09:38:00.101Z, 1.52
2023-02-22T09:40:00.197Z, 1.46
2023-02-22T09:42:00.039Z, 1.48
2023-02-22T09:44:00.203Z, 1.56
2023-02-22T09:46:00.200Z, 1.59
2023-02-22T09:48:08.081Z, 1.71
2023-02-22T09:50:00.156Z, 1.8
2023-02-22T09:52:00.124Z, 1.62
2023-02-22T09:54:00.099Z, 1.54
2023-02-22T09:56:00.117Z, 1.47
2023-02-22T09:58:00.276Z, 1.48
2023-02-22T10:00:00.170Z, 1.52
2023-02-22T10:02:00.161Z, 1.45
2023-02-22T10:04:00.183Z, 1.38
2023-02-22T10:06:00.115Z, 1.33
2023-02-22T10:08:00.103Z, 1.37
2023-02-22T10:10:00.130Z, 1.47
2023-02-22T10:12:00.110Z, 1.46
2023-02-22T10:14:00.122Z, 1.49
2023-02-22T10:16:00.091Z, 1.44
2023-02-22T10:18:00.066Z, 1.43
2023-02-22T10:20:00.118Z, 1.43
2023-02-22T10:22:00.074Z, 1.51
2023-02-22T10:24:00.072Z, 1.6
2023-02-22T10:26:00.049Z, 1.73
2023-02-22T10:28:00.049Z, 1.82
2023-02-22T10:30:00.071Z, 1.82
2023-02-22T10:32:00.266Z, 1.78
2023-02-22T10:34:00.058Z, 1.77
2023-02-22T10:36:00.098Z, 1.72
2023-02-22T10:38:00.048Z, 1.64
2023-02-22T10:40:00.059Z, 1.62
2023-02-22T10:42:00.069Z, 1.69
2023-02-22T10:44:00.109Z, 1.74
2023-02-22T10:46:00.197Z, 1.8
2023-02-22T10:48:00.112Z, 1.87
2023-02-22T10:50:00.130Z, 1.92
2023-02-22T10:52:00.228Z, 1.88
2023-02-22T10:54:00.123Z, 1.95
2023-02-22T10:56:00.216Z, 1.85
2023-02-22T10:58:00.126Z, 2.05
2023-02-22T11:00:00.155Z, 2.12
2023-02-22T11:02:00.109Z, 2.24
2023-02-22T11:04:00.113Z, 2.5
2023-02-22T11:06:00.104Z, 2.61
2023-02-22T11:08:00.136Z, 2.58
2023-02-22T11:10:00.146Z, 2.54
2023-02-22T11:12:00.099Z, 2.64
2023-02-22T11:14:00.067Z, 2.64
2023-02-22T11:16:00.119Z, 2.57
2023-02-22T11:18:00.096Z, 2.33
2023-02-22T11:20:00.101Z, 2.37
2023-02-22T11:22:00.092Z, 2.08
2023-02-22T11:24:00.092Z, 2.08
2023-02-22T11:26:00.105Z, 2.19
2023-02-22T11:28:00.055Z, 2.2
2023-02-22T11:30:00.060Z, 2.37
2023-02-22T11:32:00.081Z, 2.07
2023-02-22T11:34:00.144Z, 1.93
2023-02-22T11:36:00.094Z, 2.17
2023-02-22T11:38:00.052Z, 2.4
2023-02-22T11:40:00.053Z, 2.51
2023-02-22T11:42:00.056Z, 2.45
2023-02-22T11:44:00.098Z, 2.53
2023-02-22T11:46:02.002Z, 2.4
2023-02-22T11:48:00.108Z, 2.36
2023-02-22T11:50:00.116Z, 2.43
2023-02-22T11:52:00.099Z, 2.46
2023-02-22T11:54:00.142Z, 2.36
2023-02-22T11:56:00.158Z, 2.27
2023-02-22T11:58:00.111Z, 2.16
2023-02-22T12:00:00.115Z, 2.18
2023-02-22T12:02:00.227Z, 2.33
2023-02-22T12:04:00.265Z, 2.35
2023-02-22T12:06:00.175Z, 2.43
2023-02-22T12:08:05.256Z, 2.28
2023-02-22T12:10:00.157Z, 2.22
2023-02-22T12:12:00.153Z, 2.02
2023-02-22T12:14:00.130Z, 2.17
2023-02-22T12:16:00.173Z, 1.97
2023-02-22T12:18:00.598Z, 1.82
2023-02-22T12:20:00.047Z, 1.96
2023-02-22T12:22:00.048Z, 2.38
2023-02-22T12:24:00.058Z, 2.35
2023-02-22T12:26:00.067Z, 2.2
2023-02-22T12:28:00.106Z, 1.98
2023-02-22T12:30:00.051Z, 1.84
2023-02-22T12:32:00.085Z, 1.77
2023-02-22T12:34:00.176Z, 1.73
2023-02-22T12:36:00.070Z, 1.66
2023-02-22T12:38:00.078Z, 1.62
2023-02-22T12:40:00.088Z, 1.61
2023-02-22T12:42:00.068Z, 1.63
2023-02-22T12:44:00.119Z, 1.62
2023-02-22T12:46:00.269Z, 1.61
2023-02-22T12:48:00.109Z, 1.63
2023-02-22T12:50:00.147Z, 1.65
2023-02-22T12:52:03.081Z, 1.65
2023-02-22T12:54:00.105Z, 1.65
2023-02-22T12:56:00.119Z, 1.6
2023-02-22T12:58:00.133Z, 1.56
2023-02-22T13:00:00.148Z, 1.56
2023-02-22T13:02:00.330Z, 1.55
2023-02-22T13:04:08.580Z, 1.59
2023-02-22T13:06:00.126Z, 1.62
2023-02-22T13:08:00.134Z, 1.65
2023-02-22T13:10:00.161Z, 1.66
2023-02-22T13:12:00.142Z, 1.61
2023-02-22T13:14:00.109Z, 1.55
2023-02-22T13:16:00.190Z, 1.53
2023-02-22T13:18:01.759Z, 1.51
2023-02-22T13:20:00.045Z, 1.51
2023-02-22T13:22:00.057Z, 1.52
2023-02-22T13:24:00.054Z, 1.53
2023-02-22T13:26:00.049Z, 1.59
2023-02-22T13:28:00.072Z, 1.61
2023-02-22T13:30:00.093Z, 1.61
2023-02-22T13:32:00.178Z, 1.55
2023-02-22T13:34:00.054Z, 1.51
2023-02-22T13:36:00.041Z, 1.5
2023-02-22T13:38:00.040Z, 1.48
2023-02-22T13:40:00.130Z, 1.43
2023-02-22T13:42:00.049Z, 1.38
2023-02-22T13:44:00.108Z, 1.37
2023-02-22T13:46:05.179Z, 1.38
2023-02-22T13:48:00.110Z, 1.41
2023-02-22T13:50:00.118Z, 1.47
2023-02-22T13:52:00.141Z, 1.52
2023-02-22T13:54:00.112Z, 1.57
2023-02-22T13:56:00.117Z, 1.57
2023-02-22T13:58:00.127Z, 1.67
2023-02-22T14:00:00.118Z, 1.85
2023-02-22T14:02:00.200Z, 1.88
2023-02-22T14:04:00.097Z, 1.89
2023-02-22T14:06:00.097Z, 1.66
2023-02-22T14:08:00.094Z, 1.75
2023-02-22T14:10:00.129Z, 2.35
2023-02-22T14:12:00.102Z, 1.77
2023-02-22T14:14:00.060Z, 1.51
2023-02-22T14:16:00.341Z, 1.46
2023-02-22T14:18:00.116Z, 1.43
2023-02-22T14:20:00.067Z, 1.38
2023-02-22T14:22:00.065Z, 1.34
2023-02-22T14:24:00.117Z, 1.32
2023-02-22T14:26:00.234Z, 1.31
2023-02-22T14:28:00.338Z, 1.28
2023-02-22T14:30:00.269Z, 1.23
2023-02-22T14:32:00.440Z, 1.22
2023-02-22T14:34:00.070Z, 1.21
2023-02-22T14:36:00.104Z, 1.2
2023-02-22T14:38:00.069Z, 1.21
2023-02-22T14:40:00.099Z, 1.22
2023-02-22T14:42:00.048Z, 1.22
2023-02-22T14:44:00.082Z, 1.21
2023-02-22T14:46:00.191Z, 1.2
2023-02-22T14:48:00.101Z, 1.19
2023-02-22T14:50:00.102Z, 1.18
2023-02-22T14:52:00.111Z, 1.17
2023-02-22T14:54:00.141Z, 1.17
2023-02-22T14:56:00.115Z, 1.24
2023-02-22T14:58:00.124Z, 1.25
2023-02-22T15:00:00.123Z, 1.19
2023-02-22T15:02:11.081Z, 1.23
2023-02-22T15:04:07.736Z, 1.38
2023-02-22T15:06:00.122Z, 1.44
2023-02-22T15:08:00.112Z, 1.28
2023-02-22T15:10:00.110Z, 1.27
2023-02-22T15:12:00.103Z, 1.22
2023-02-22T15:14:00.093Z, 1.18
2023-02-22T15:16:01.828Z, 1.14
2023-02-22T15:18:00.084Z, 1.12
2023-02-22T15:20:00.039Z, 1.09
2023-02-22T15:22:00.064Z, 1.05
2023-02-22T15:24:00.038Z, 1
2023-02-22T15:26:00.034Z, 0.95
2023-02-22T15:28:00.019Z, 0.9
2023-02-22T15:30:00.061Z, 0.86
2023-02-22T15:32:00.066Z, 0.84
2023-02-22T15:34:00.055Z, 0.82
2023-02-22T15:36:00.040Z, 0.78
2023-02-22T15:38:00.049Z, 0.79
2023-02-22T15:40:00.051Z, 0.75
2023-02-22T15:42:00.099Z, 0.71
2023-02-22T15:44:03.439Z, 0.72
2023-02-22T15:46:00.258Z, 0.71
2023-02-22T15:48:00.130Z, 0.69
2023-02-22T15:50:00.200Z, 0.67
2023-02-22T15:52:00.095Z, 0.64
2023-02-22T15:54:00.102Z, 0.61
2023-02-22T15:56:00.113Z, 0.59
2023-02-22T15:58:00.137Z, 0.55
2023-02-22T16:00:00.172Z, 0.51
2023-02-22T16:02:00.439Z, 0.48
2023-02-22T16:04:00.165Z, 0.45
2023-02-22T16:06:00.161Z, 0.43
2023-02-22T16:08:00.100Z, 0.41
2023-02-22T16:10:00.236Z, 0.39
2023-02-22T16:12:00.116Z, 0.37
2023-02-22T16:14:00.057Z, 0.35
2023-02-22T16:16:00.050Z, 0.33
2023-02-22T16:18:02.524Z, 0.31
2023-02-22T16:20:00.045Z, 0.29
2023-02-22T16:22:00.058Z, 0.27
2023-02-22T16:24:13.936Z, 0.25
2023-02-22T16:26:00.037Z, 0.23
2023-02-22T16:28:00.030Z, 0.22
2023-02-22T16:30:00.045Z, 0.2
2023-02-22T16:32:00.152Z, 0.18
2023-02-22T16:34:00.052Z, 0.16
2023-02-22T16:36:00.049Z, 0.14
2023-02-22T16:38:00.053Z, 0.13
2023-02-22T16:40:00.056Z, 0.11
2023-02-22T16:42:00.060Z, 0.1
2023-02-22T16:44:00.126Z, 0.09
2023-02-22T16:46:00.121Z, 0.07
2023-02-22T16:48:00.092Z, 0.06
2023-02-22T16:50:00.127Z, 0.06
2023-02-22T16:52:00.108Z, 0.05
2023-02-22T16:54:00.124Z, 0.04
2023-02-22T16:56:00.125Z, 0.03
2023-02-22T16:58:00.392Z, 0.03
2023-02-22T17:00:00.148Z, 0.02
2023-02-22T17:02:00.354Z, 0.02
2023-02-22T17:04:00.250Z, 0.01
2023-02-22T17:06:00.389Z, 0.01
2023-02-22T17:08:00.517Z, 0.01
2023-02-22T17:10:00.160Z, 0.01
2023-02-22T17:12:00.129Z, 0
2023-02-22T17:14:00.077Z, 0
2023-02-22T17:16:00.111Z, 0
2023-02-22T17:18:00.089Z, 0
2023-02-22T17:20:00.093Z, 0
2023-02-22T17:22:00.060Z, 0
2023-02-22T17:24:00.050Z, 0
2023-02-22T17:26:00.058Z, 0
2023-02-22T17:28:00.037Z, 0
2023-02-22T17:30:00.050Z, 0
2023-02-22T17:32:00.111Z, 0
2023-02-22T17:34:00.053Z, 0
2023-02-22T17:36:00.041Z, 0
2023-02-22T17:38:00.040Z, 0
2023-02-22T17:40:00.039Z, 0
2023-02-22T17:42:00.033Z, 0
2023-02-22T17:44:00.127Z, 0
2023-02-22T17:46:00.209Z, 0
2023-02-22T17:48:00.131Z, 0
2023-02-22T17:50:00.153Z, 0
2023-02-22T17:52:00.126Z, 0
2023-02-22T17:54:00.115Z, 0
2023-02-22T17:56:00.142Z, 0
2023-02-22T17:58:00.139Z, 0
2023-02-22T18:00:00.134Z, 0
2023-02-22T18:02:00.224Z, 0
2023-02-22T18:04:00.104Z, 0
2023-02-22T18:06:00.104Z, 0
2023-02-22T18:08:00.139Z, 0
2023-02-22T18:10:00.181Z, 0
2023-02-22T18:12:00.113Z, 0
2023-02-22T18:14:00.065Z, 0
2023-02-22T18:16:00.567Z, 0
2023-02-22T18:18:00.103Z, 0
2023-02-22T18:20:00.070Z, 0
2023-02-22T18:22:00.061Z, 0
2023-02-22T18:24:00.096Z, 0
2023-02-22T18:26:10.531Z, 0
2023-02-22T18:28:00.038Z, 0
2023-02-22T18:30:00.053Z, 0
2023-02-22T18:32:00.087Z, 0
2023-02-22T18:34:00.060Z, 0
2023-02-22T18:36:00.124Z, 0
2023-02-22T18:38:00.060Z, 0
2023-02-22T18:40:00.078Z, 0
2023-02-22T18:42:00.056Z, 0
2023-02-22T18:44:00.150Z, 0
2023-02-22T18:46:00.102Z, 0
2023-02-22T18:48:00.114Z, 0
2023-02-22T18:50:00.138Z, 0
2023-02-22T18:52:00.132Z, 0
2023-02-22T18:54:00.650Z, 0
2023-02-22T18:56:00.138Z, 0
2023-02-22T18:58:00.137Z, 0
2023-02-22T19:00:00.174Z, 0
2023-02-22T19:02:00.198Z, 0
2023-02-22T19:04:00.101Z, 0
2023-02-22T19:06:00.116Z, 0
2023-02-22T19:08:00.099Z, 0
2023-02-22T19:10:00.125Z, 0
2023-02-22T19:12:00.105Z, 0
2023-02-22T19:14:00.047Z, 0
2023-02-22T19:16:00.124Z, 0
2023-02-22T19:18:00.040Z, 0
2023-02-22T19:20:00.014Z, 0
2023-02-22T19:22:00.094Z, 0
2023-02-22T19:24:00.035Z, 0
2023-02-22T19:26:00.038Z, 0
2023-02-22T19:28:00.034Z, 0
2023-02-22T19:30:00.052Z, 0
2023-02-22T19:32:00.147Z, 0
2023-02-22T19:34:00.032Z, 0
2023-02-22T19:36:00.034Z, 0
2023-02-22T19:38:00.027Z, 0
2023-02-22T19:40:00.057Z, 0
2023-02-22T19:42:00.033Z, 0
2023-02-22T19:44:00.104Z, 0
2023-02-22T19:46:00.217Z, 0
2023-02-22T19:48:00.105Z, 0
2023-02-22T19:50:00.423Z, 0
2023-02-22T19:52:00.110Z, 0
2023-02-22T19:54:00.086Z, 0
2023-02-22T19:56:00.110Z, 0
2023-02-22T19:58:00.201Z, 0
2023-02-22T20:00:00.252Z, 0
2023-02-22T20:02:00.107Z, 0
2023-02-22T20:04:00.270Z, 0
2023-02-22T20:06:00.117Z, 0
2023-02-22T20:08:00.124Z, 0
2023-02-22T20:10:00.108Z, 0
2023-02-22T20:12:00.117Z, 0
2023-02-22T20:14:00.076Z, 0
2023-02-22T20:16:00.046Z, 0
2023-02-22T20:18:00.070Z, 0
2023-02-22T20:20:00.052Z, 0
2023-02-22T20:22:00.045Z, 0
2023-02-22T20:24:00.066Z, 0
2023-02-22T20:26:00.043Z, 0
2023-02-22T20:28:00.037Z, 0
2023-02-22T20:30:00.039Z, 0
2023-02-22T20:32:00.278Z, 0
2023-02-22T20:34:00.219Z, 0
2023-02-22T20:42:00.053Z, 0
2023-02-22T20:44:00.091Z, 0
2023-02-22T20:46:00.180Z, 0
2023-02-22T20:48:00.114Z, 0
2023-02-22T20:50:00.187Z, 0
2023-02-22T20:52:00.104Z, 0
2023-02-22T20:54:00.200Z, 0
2023-02-22T20:56:00.117Z, 0
2023-02-22T20:58:00.165Z, 0
2023-02-22T21:00:00.106Z, 0
2023-02-22T21:02:00.123Z, 0
2023-02-22T21:04:00.116Z, 0
2023-02-22T21:06:00.127Z, 0
2023-02-22T21:12:22.287Z, 0
2023-02-22T21:14:00.111Z, 0
2023-02-22T21:16:00.056Z, 0
2023-02-22T21:18:00.109Z, 0
2023-02-22T21:20:00.054Z, 0
2023-02-22T21:22:00.092Z, 0
2023-02-22T21:24:00.052Z, 0
2023-02-22T21:26:00.085Z, 0
2023-02-22T21:28:00.114Z, 0
2023-02-22T21:30:00.112Z, 0
2023-02-22T21:32:00.599Z, 0
2023-02-22T21:34:00.048Z, 0
2023-02-22T21:36:00.162Z, 0
2023-02-22T21:38:00.097Z, 0
2023-02-22T21:40:00.038Z, 0
2023-02-22T21:42:00.096Z, 0
2023-02-22T21:44:00.153Z, 0
2023-02-22T21:46:00.185Z, 0
2023-02-22T21:48:00.111Z, 0
2023-02-22T21:50:00.202Z, 0
2023-02-22T21:52:00.114Z, 0
2023-02-22T21:54:00.112Z, 0
2023-02-22T21:56:00.370Z, 0
2023-02-22T21:58:00.123Z, 0
2023-02-22T22:00:00.150Z, 0
2023-02-22T22:02:00.144Z, 0
2023-02-22T22:04:00.689Z, 0
2023-02-22T22:06:00.220Z, 0
2023-02-22T22:08:00.115Z, 0
2023-02-22T22:10:00.135Z, 0
2023-02-22T22:12:00.157Z, 0
2023-02-22T22:14:00.058Z, 0
2023-02-22T22:16:00.156Z, 0
2023-02-22T22:18:00.057Z, 0
2023-02-22T22:20:00.065Z, 0
2023-02-22T22:22:00.096Z, 0
2023-02-22T22:24:00.048Z, 0
2023-02-22T22:26:00.275Z, 0
2023-02-22T22:28:00.023Z, 0
2023-02-22T22:30:00.047Z, 0
2023-02-22T22:32:00.212Z, 0
2023-02-22T22:34:00.076Z, 0
2023-02-22T22:36:00.166Z, 0
2023-02-22T22:38:00.095Z, 0
2023-02-22T22:40:00.151Z, 0
2023-02-22T22:42:00.057Z, 0
2023-02-22T22:44:00.108Z, 0
2023-02-22T22:46:00.234Z, 0
2023-02-22T22:48:00.105Z, 0
2023-02-22T22:50:00.115Z, 0
2023-02-22T22:52:00.121Z, 0
2023-02-22T22:54:00.120Z, 0
2023-02-22T22:56:00.107Z, 0
2023-02-22T22:58:00.125Z, 0
2023-02-22T23:00:00.136Z, 0
2023-02-22T23:02:00.098Z, 0
2023-02-22T23:04:01.925Z, 0
2023-02-22T23:06:00.108Z, 0
2023-02-22T23:08:00.102Z, 0
2023-02-22T23:10:00.136Z, 0
2023-02-22T23:12:00.096Z, 0
2023-02-22T23:14:00.100Z, 0
2023-02-22T23:16:00.194Z, 0
2023-02-22T23:18:00.047Z, 0
2023-02-22T23:20:00.050Z, 0
2023-02-22T23:22:00.053Z, 0
2023-02-22T23:24:00.096Z, 0
2023-02-22T23:26:00.101Z, 0
2023-02-22T23:28:00.027Z, 0
2023-02-22T23:30:00.081Z, 0
2023-02-22T23:32:00.183Z, 0
2023-02-22T23:34:00.082Z, 0
2023-02-22T23:36:00.040Z, 0
2023-02-22T23:38:00.034Z, 0
2023-02-22T23:40:00.046Z, 0
2023-02-22T23:42:00.042Z, 0
2023-02-22T23:44:00.096Z, 0
2023-02-22T23:46:00.137Z, 0
2023-02-22T23:48:00.134Z, 0
2023-02-22T23:50:00.133Z, 0
2023-02-22T23:52:00.119Z, 0
2023-02-22T23:54:00.139Z, 0
2023-02-22T23:56:00.099Z, 0
2023-02-22T23:58:00.127Z, 0
